createdAt,value
2023-02-22T00:01:51.014Z,1.04
2023-02-22T00:04:21.125Z,1.04
2023-02-22T00:06:49.625Z,1.01
2023-02-22T00:09:21.424Z,1.04
2023-02-22T00:11:49.074Z,0.99
2023-02-22T00:14:15.687Z,0.95
2023-02-22T00:16:42.383Z,0.91
2023-02-22T00:19:10.543Z,0.92
2023-02-22T00:21:37.433Z,0.87
2023-02-22T00:24:22.826Z,0.81
2023-02-22T00:26:56.991Z,0.77
2023-02-22T00:29:24.250Z,0.78
2023-02-22T00:31:51.123Z,0.78
2023-02-22T00:34:17.865Z,0.75
2023-02-22T00:36:50.671Z,0.71
2023-02-22T00:39:17.234Z,0.72
2023-02-22T00:41:44.080Z,0.73
2023-02-22T00:44:11.041Z,0.78
2023-02-22T00:46:37.614Z,0.73
2023-02-22T00:49:05.237Z,0.68
2023-02-22T00:51:31.835Z,0.67
2023-02-22T00:53:58.398Z,0.68
2023-02-22T00:56:25.338Z,0.65
2023-02-22T00:58:51.902Z,0.65
2023-02-22T01:01:18.817Z,0.60
2023-02-22T01:03:45.970Z,0.58
2023-02-22T01:06:12.642Z,0.58
2023-02-22T01:08:44.248Z,0.56
2023-02-22T01:11:10.860Z,0.55
2023-02-22T01:13:37.442Z,0.54
2023-02-22T01:16:04.560Z,0.56
2023-02-22T01:18:31.132Z,0.57
2023-02-22T01:20:57.717Z,0.56
2023-02-22T01:23:24.255Z,0.57
2023-02-22T01:25:50.829Z,0.54
2023-02-22T01:28:17.719Z,0.54
2023-02-22T01:30:44.422Z,0.46
2023-02-22T01:33:12.779Z,0.45
2023-02-22T01:35:41.030Z,0.45
2023-02-22T01:38:08.625Z,0.43
2023-02-22T01:40:38.400Z,0.39
2023-02-22T01:43:16.382Z,0.34
2023-02-22T01:45:51.605Z,0.35
2023-02-22T01:48:21.114Z,0.36
2023-02-22T01:50:53.982Z,0.38
2023-02-22T01:53:23.939Z,0.40
2023-02-22T01:55:51.455Z,0.38
2023-02-22T01:58:20.436Z,0.37
2023-02-22T02:00:47.010Z,0.42
2023-02-22T02:03:27.676Z,0.42
2023-02-22T02:05:58.458Z,0.41
2023-02-22T02:08:38.096Z,0.43
2023-02-22T02:11:09.067Z,0.44
2023-02-22T02:13:36.589Z,0.44
2023-02-22T02:16:03.509Z,0.44
2023-02-22T02:18:30.247Z,0.40
2023-02-22T02:20:56.843Z,0.42
2023-02-22T02:23:41.054Z,0.42
2023-02-22T02:26:44.751Z,0.42
2023-02-22T02:29:35.707Z,0.42
2023-02-22T02:32:17.515Z,0.37
2023-02-22T02:34:54.932Z,0.36
2023-02-22T02:37:27.523Z,0.39
2023-02-22T02:40:24.030Z,0.31
2023-02-22T02:42:57.550Z,0.36
2023-02-22T02:45:33.055Z,0.34
2023-02-22T02:48:01.361Z,0.32
2023-02-22T02:50:41.659Z,0.32
2023-02-22T02:53:09.918Z,0.33
2023-02-22T02:55:37.528Z,0.32
2023-02-22T02:58:06.450Z,0.34
2023-02-22T03:00:40.738Z,0.34
2023-02-22T03:03:53.715Z,0.33
2023-02-22T03:06:34.539Z,0.30
2023-02-22T03:09:23.791Z,0.30
2023-02-22T03:12:15.809Z,0.28
2023-02-22T03:14:55.896Z,0.32
2023-02-22T03:17:26.721Z,0.30
2023-02-22T03:20:04.838Z,0.28
2023-02-22T03:22:37.720Z,0.28
2023-02-22T03:25:51.187Z,0.29
2023-02-22T03:28:21.547Z,0.30
2023-02-22T03:30:53.716Z,0.28
2023-02-22T03:33:36.356Z,0.29
2023-02-22T03:36:28.998Z,0.30
2023-02-22T03:38:59.627Z,0.30
2023-02-22T03:41:28.647Z,0.24
2023-02-22T03:44:02.722Z,0.27
2023-02-22T03:46:31.549Z,0.22
2023-02-22T03:49:14.195Z,0.24
2023-02-22T03:51:41.316Z,0.23
2023-02-22T03:54:08.474Z,0.22
2023-02-22T03:56:50.108Z,0.19
2023-02-22T03:59:17.088Z,0.24
2023-02-22T04:01:43.854Z,0.23
2023-02-22T04:04:10.614Z,0.26
2023-02-22T04:06:39.326Z,0.23
2023-02-22T04:09:08.623Z,0.22
2023-02-22T04:11:35.232Z,0.20
2023-02-22T04:14:01.778Z,0.22
2023-02-22T04:16:28.487Z,0.20
2023-02-22T04:18:55.034Z,0.23
2023-02-22T04:21:21.555Z,0.22
2023-02-22T04:23:48.075Z,0.20
2023-02-22T04:26:14.631Z,0.18
2023-02-22T04:28:41.163Z,0.17
2023-02-22T04:31:07.733Z,0.20
2023-02-22T04:33:34.424Z,0.22
2023-02-22T04:36:01.073Z,0.20
2023-02-22T04:38:27.904Z,0.22
2023-02-22T04:40:56.266Z,0.28
2023-02-22T04:43:22.885Z,0.27
2023-02-22T04:45:49.469Z,0.28
2023-02-22T04:48:16.282Z,0.22
2023-02-22T04:50:42.823Z,0.24
2023-02-22T04:53:09.890Z,0.20
2023-02-22T04:55:36.558Z,0.22
2023-02-22T04:58:03.492Z,0.21
2023-02-22T05:00:30.153Z,0.21
2023-02-22T05:02:56.758Z,0.23
2023-02-22T05:05:23.462Z,0.25
2023-02-22T05:07:50.251Z,0.24
2023-02-22T05:10:17.470Z,0.23
2023-02-22T05:12:44.007Z,0.19
2023-02-22T05:15:11.255Z,0.17
2023-02-22T05:17:37.814Z,0.16
2023-02-22T05:20:05.039Z,0.13
2023-02-22T05:22:31.529Z,0.07
2023-02-22T05:24:58.584Z,0.06
2023-02-22T05:27:25.187Z,0.04
2023-02-22T05:29:51.733Z,0.03
2023-02-22T05:32:18.321Z,0.04
2023-02-22T05:34:45.647Z,-0.02
2023-02-22T05:37:12.286Z,-0.03
2023-02-22T05:39:39.282Z,-0.09
2023-02-22T05:42:05.861Z,-0.09
2023-02-22T05:44:32.372Z,-0.12
2023-02-22T05:46:58.935Z,-0.11
2023-02-22T05:49:25.471Z,-0.13
2023-02-22T05:51:51.990Z,-0.18
2023-02-22T05:54:18.603Z,-0.12
2023-02-22T05:56:45.158Z,-0.18
2023-02-22T05:59:11.973Z,-0.15
2023-02-22T06:01:38.562Z,-0.12
2023-02-22T06:04:05.124Z,-0.15
2023-02-22T06:06:31.654Z,-0.11
2023-02-22T06:08:58.387Z,-0.10
2023-02-22T06:11:24.901Z,-0.08
2023-02-22T06:13:52.755Z,-0.06
2023-02-22T06:16:21.761Z,-0.07
2023-02-22T06:18:49.076Z,-0.08
2023-02-22T06:21:15.869Z,-0.08
2023-02-22T06:23:42.667Z,-0.10
2023-02-22T06:26:09.191Z,-0.14
2023-02-22T06:28:35.750Z,-0.19
2023-02-22T06:31:02.411Z,-0.18
2023-02-22T06:33:28.952Z,-0.18
2023-02-22T06:35:55.534Z,-0.18
2023-02-22T06:38:23.889Z,-0.20
2023-02-22T06:40:50.451Z,-0.19
2023-02-22T06:43:17.627Z,-0.21
2023-02-22T06:45:44.377Z,-0.19
2023-02-22T06:48:10.941Z,-0.19
2023-02-22T06:50:37.459Z,-0.13
2023-02-22T06:53:04.211Z,-0.12
2023-02-22T06:55:32.904Z,-0.04
2023-02-22T06:58:00.075Z,-0.02
2023-02-22T07:00:28.855Z,-0.03
2023-02-22T07:02:56.150Z,-0.05
2023-02-22T07:05:24.383Z,0.00
2023-02-22T07:07:53.122Z,-0.01
2023-02-22T07:10:28.611Z,-0.02
2023-02-22T07:12:55.216Z,0.04
2023-02-22T07:15:24.075Z,0.16
2023-02-22T07:17:52.079Z,0.31
2023-02-22T07:20:20.825Z,0.41
2023-02-22T07:22:48.957Z,0.48
2023-02-22T07:25:15.657Z,0.46
2023-02-22T07:27:43.300Z,0.46
2023-02-22T07:30:18.061Z,0.41
2023-02-22T07:32:45.466Z,0.36
2023-02-22T07:35:21.718Z,0.32
2023-02-22T07:37:48.329Z,0.30
2023-02-22T07:40:16.710Z,0.34
2023-02-22T07:42:59.596Z,0.42
2023-02-22T07:45:35.663Z,0.52
2023-02-22T07:48:04.635Z,0.63
2023-02-22T07:50:32.651Z,0.71
2023-02-22T07:53:01.515Z,0.78
2023-02-22T07:55:30.358Z,0.71
2023-02-22T07:57:59.862Z,0.66
2023-02-22T08:00:32.073Z,0.68
2023-02-22T08:03:01.162Z,0.63
2023-02-22T08:05:28.630Z,0.61
2023-02-22T08:07:55.491Z,0.51
2023-02-22T08:10:24.006Z,0.47
2023-02-22T08:12:51.585Z,0.55
2023-02-22T08:15:21.601Z,0.56
2023-02-22T08:17:48.201Z,0.54
2023-02-22T08:20:14.795Z,0.64
2023-02-22T08:22:43.912Z,0.82
2023-02-22T08:25:11.008Z,0.86
2023-02-22T08:27:37.573Z,0.88
2023-02-22T08:30:05.343Z,0.83
2023-02-22T08:32:32.015Z,0.81
2023-02-22T08:34:58.709Z,0.81
2023-02-22T08:37:25.265Z,0.81
2023-02-22T08:39:53.349Z,0.88
2023-02-22T08:42:19.871Z,0.84
2023-02-22T08:44:46.526Z,0.79
2023-02-22T08:47:13.106Z,0.84
2023-02-22T08:49:39.688Z,0.78
2023-02-22T08:52:06.268Z,0.77
2023-02-22T08:54:32.780Z,0.79
2023-02-22T08:56:59.333Z,0.83
2023-02-22T08:59:26.015Z,0.82
2023-02-22T09:01:52.684Z,0.82
2023-02-22T09:04:19.282Z,0.84
2023-02-22T09:06:51.797Z,0.90
2023-02-22T09:09:21.337Z,0.95
2023-02-22T09:11:53.000Z,0.93
2023-02-22T09:14:19.779Z,0.96
2023-02-22T09:16:46.432Z,0.98
2023-02-22T09:19:14.372Z,1.03
2023-02-22T09:21:40.963Z,1.06
2023-02-22T09:24:11.145Z,1.05
2023-02-22T09:26:42.788Z,1.08
2023-02-22T09:29:09.784Z,1.10
2023-02-22T09:31:38.250Z,1.12
2023-02-22T09:34:13.650Z,1.08
2023-02-22T09:36:44.068Z,1.10
2023-02-22T09:39:11.369Z,1.08
2023-02-22T09:42:05.903Z,1.14
2023-02-22T09:44:38.719Z,1.17
2023-02-22T09:47:10.683Z,1.20
2023-02-22T09:49:47.318Z,1.23
2023-02-22T09:52:28.712Z,1.21
2023-02-22T09:55:30.808Z,1.12
2023-02-22T09:58:01.554Z,1.12
2023-02-22T10:00:33.916Z,1.17
2023-02-22T10:03:28.527Z,1.30
2023-02-22T10:06:06.059Z,1.42
2023-02-22T10:08:34.440Z,1.46
2023-02-22T10:11:16.065Z,1.48
2023-02-22T10:14:11.523Z,1.49
2023-02-22T10:16:53.267Z,1.52
2023-02-22T10:19:45.596Z,1.50
2023-02-22T10:22:37.444Z,1.51
2023-02-22T10:25:19.340Z,1.50
2023-02-22T10:27:57.362Z,1.62
2023-02-22T10:30:30.423Z,1.66
2023-02-22T10:33:26.732Z,1.60
2023-02-22T10:35:55.523Z,1.61
2023-02-22T10:38:25.307Z,1.64
2023-02-22T10:41:18.901Z,1.65
2023-02-22T10:43:46.136Z,1.69
2023-02-22T10:46:19.004Z,1.67
2023-02-22T10:48:49.923Z,1.68
2023-02-22T10:51:16.491Z,1.70
2023-02-22T10:53:43.159Z,1.71
2023-02-22T10:56:24.655Z,1.63
2023-02-22T10:59:02.531Z,1.54
2023-02-22T11:01:31.878Z,1.41
2023-02-22T11:04:13.269Z,1.26
2023-02-22T11:06:42.534Z,1.19
2023-02-22T11:09:22.588Z,1.16
2023-02-22T11:11:51.019Z,1.09
2023-02-22T11:14:29.454Z,1.06
2023-02-22T11:16:58.579Z,1.04
2023-02-22T11:19:31.065Z,1.03
2023-02-22T11:22:03.257Z,1.01
2023-02-22T11:24:40.369Z,1.02
2023-02-22T11:27:26.777Z,0.97
2023-02-22T11:29:53.406Z,1.04
2023-02-22T11:32:22.440Z,1.00
2023-02-22T11:35:03.554Z,0.98
2023-02-22T11:37:36.620Z,0.84
2023-02-22T11:40:22.378Z,0.79
2023-02-22T11:43:05.955Z,0.81
2023-02-22T11:45:33.002Z,0.94
2023-02-22T11:48:05.940Z,1.10
2023-02-22T11:51:03.733Z,1.21
2023-02-22T11:53:52.105Z,1.37
2023-02-22T11:56:36.950Z,1.51
2023-02-22T11:59:13.395Z,1.63
2023-02-22T12:01:47.870Z,1.69
2023-02-22T12:04:41.339Z,1.69
2023-02-22T12:07:10.851Z,1.73
2023-02-22T12:09:43.420Z,1.80
2023-02-22T12:12:39.185Z,1.76
2023-02-22T12:15:08.444Z,1.63
2023-02-22T12:17:35.040Z,1.56
2023-02-22T12:20:10.282Z,1.43
2023-02-22T12:22:46.532Z,1.27
2023-02-22T12:25:16.011Z,1.12
2023-02-22T12:28:25.501Z,1.01
2023-02-22T12:31:11.538Z,0.93
2023-02-22T12:33:49.476Z,0.84
2023-02-22T12:36:21.042Z,0.70
2023-02-22T12:38:57.424Z,0.66
2023-02-22T12:42:01.774Z,0.66
2023-02-22T12:44:37.911Z,0.62
2023-02-22T12:47:07.820Z,0.58
2023-02-22T12:49:41.270Z,0.53
2023-02-22T12:52:36.815Z,0.48
2023-02-22T12:55:21.343Z,0.46
2023-02-22T12:58:01.007Z,0.42
2023-02-22T13:00:44.917Z,0.36
2023-02-22T13:03:37.760Z,0.34
2023-02-22T13:06:10.185Z,0.35
2023-02-22T13:08:48.332Z,0.37
2023-02-22T13:11:27.676Z,0.43
2023-02-22T13:14:12.149Z,0.43
2023-02-22T13:17:06.929Z,0.42
2023-02-22T13:19:45.330Z,0.40
2023-02-22T13:22:28.924Z,0.38
2023-02-22T13:25:01.438Z,0.34
2023-02-22T13:27:42.159Z,0.29
2023-02-22T13:30:36.083Z,0.29
2023-02-22T13:33:20.720Z,0.28
2023-02-22T13:35:56.224Z,0.21
2023-02-22T13:38:56.213Z,0.15
2023-02-22T13:41:43.120Z,0.16
2023-02-22T13:44:37.185Z,0.12
2023-02-22T13:47:27.277Z,0.18
2023-02-22T13:50:24.383Z,0.18
2023-02-22T13:52:53.067Z,0.13
2023-02-22T13:55:27.140Z,0.10
2023-02-22T13:58:02.981Z,0.09
2023-02-22T14:00:41.240Z,0.12
2023-02-22T14:03:36.404Z,0.10
2023-02-22T14:06:07.747Z,0.09
2023-02-22T14:08:34.212Z,0.06
2023-02-22T14:11:01.346Z,0.04
2023-02-22T14:13:30.006Z,0.00
2023-02-22T14:16:02.737Z,-0.02
2023-02-22T14:18:43.267Z,0.00
2023-02-22T14:21:14.140Z,0.00
2023-02-22T14:23:42.254Z,-0.01
2023-02-22T14:26:30.157Z,-0.01
2023-02-22T14:29:09.032Z,-0.03
2023-02-22T14:32:00.778Z,-0.05
2023-02-22T14:34:49.445Z,-0.05
2023-02-22T14:37:24.891Z,-0.04
2023-02-22T14:40:12.862Z,-0.10
2023-02-22T14:42:45.740Z,-0.10
2023-02-22T14:45:24.818Z,-0.12
2023-02-22T14:48:03.990Z,-0.07
2023-02-22T14:50:39.289Z,-0.09
2023-02-22T14:53:33.710Z,-0.11
2023-02-22T14:56:14.617Z,-0.12
2023-02-22T14:58:52.318Z,-0.12
2023-02-22T15:01:20.187Z,-0.15
2023-02-22T15:03:49.738Z,-0.15
2023-02-22T15:06:25.865Z,-0.20
2023-02-22T15:09:25.082Z,-0.21
2023-02-22T15:12:10.846Z,-0.21
2023-02-22T15:14:38.929Z,-0.25
2023-02-22T15:17:24.978Z,-0.28
2023-02-22T15:19:52.665Z,-0.27
2023-02-22T15:22:26.296Z,-0.28
2023-02-22T15:25:11.678Z,-0.32
2023-02-22T15:27:41.052Z,-0.32
2023-02-22T15:30:19.207Z,-0.34
2023-02-22T15:33:02.667Z,-0.36
2023-02-22T15:35:32.872Z,-0.35
2023-02-22T15:38:11.400Z,-0.35
2023-02-22T15:40:42.938Z,-0.38
2023-02-22T15:43:24.471Z,-0.38
2023-02-22T15:45:52.018Z,-0.39
2023-02-22T15:48:19.157Z,-0.36
2023-02-22T15:51:06.517Z,-0.33
2023-02-22T15:53:47.865Z,-0.31
2023-02-22T15:56:25.134Z,-0.33
2023-02-22T15:58:58.772Z,-0.32
2023-02-22T16:01:26.231Z,-0.32
2023-02-22T16:03:59.693Z,-0.32
2023-02-22T16:06:36.724Z,-0.30
2023-02-22T16:09:12.785Z,-0.30
2023-02-22T16:11:44.097Z,-0.30
2023-02-22T16:14:40.334Z,-0.32
2023-02-22T16:17:29.616Z,-0.30
2023-02-22T16:20:00.642Z,-0.34
2023-02-22T16:22:34.043Z,-0.34
2023-02-22T16:25:18.728Z,-0.34
2023-02-22T16:27:49.204Z,-0.33
2023-02-22T16:30:24.696Z,-0.36
2023-02-22T16:32:54.368Z,-0.39
2023-02-22T16:35:21.541Z,-0.39
2023-02-22T16:37:55.020Z,-0.43
2023-02-22T16:40:44.555Z,-0.44
2023-02-22T16:43:15.150Z,-0.48
2023-02-22T16:45:42.676Z,-0.48
2023-02-22T16:48:17.058Z,-0.48
2023-02-22T16:50:43.640Z,-0.50
2023-02-22T16:53:10.773Z,-0.52
2023-02-22T16:55:37.347Z,-0.54
2023-02-22T16:58:04.692Z,-0.55
2023-02-22T17:00:31.643Z,-0.57
2023-02-22T17:03:03.817Z,-0.57
2023-02-22T17:05:31.847Z,-0.58
2023-02-22T17:07:58.398Z,-0.59
2023-02-22T17:10:26.130Z,-0.58
2023-02-22T17:12:56.086Z,-0.55
2023-02-22T17:15:26.367Z,-0.55
2023-02-22T17:17:54.087Z,-0.58
2023-02-22T17:20:30.986Z,-0.58
2023-02-22T17:23:04.663Z,-0.57
2023-02-22T17:25:33.670Z,-0.58
2023-02-22T17:28:00.261Z,-0.60
2023-02-22T17:30:27.081Z,-0.62
2023-02-22T17:32:56.064Z,-0.63
2023-02-22T17:35:26.990Z,-0.62
2023-02-22T17:37:53.649Z,-0.65
2023-02-22T17:40:20.256Z,-0.67
2023-02-22T17:42:46.893Z,-0.70
2023-02-22T17:45:14.075Z,-0.73
2023-02-22T17:47:44.421Z,-0.71
2023-02-22T17:50:15.317Z,-0.69
2023-02-22T17:52:43.125Z,-0.69
2023-02-22T17:55:11.545Z,-0.72
2023-02-22T17:57:44.105Z,-0.73
2023-02-22T18:00:23.336Z,-0.73
2023-02-22T18:02:51.570Z,-0.81
2023-02-22T18:05:18.850Z,-0.92
2023-02-22T18:07:46.470Z,-0.99
2023-02-22T18:10:13.327Z,-1.01
2023-02-22T18:12:40.277Z,-1.06
2023-02-22T18:15:08.734Z,-1.11
2023-02-22T18:17:37.246Z,-1.17
2023-02-22T18:20:13.958Z,-1.23
2023-02-22T18:22:44.319Z,-1.26
2023-02-22T18:25:11.839Z,-1.30
2023-02-22T18:27:38.435Z,-1.33
2023-02-22T18:30:06.172Z,-1.32
2023-02-22T18:32:33.531Z,-1.30
2023-02-22T18:35:00.927Z,-1.31
2023-02-22T18:37:28.288Z,-1.28
2023-02-22T18:39:55.768Z,-1.25
2023-02-22T18:42:26.611Z,-1.26
2023-02-22T18:44:54.647Z,-1.27
2023-02-22T18:47:21.984Z,-1.27
2023-02-22T18:49:48.817Z,-1.21
2023-02-22T18:52:15.763Z,-1.18
2023-02-22T18:54:43.977Z,-1.17
2023-02-22T18:57:12.736Z,-1.19
2023-02-22T18:59:40.148Z,-1.17
2023-02-22T19:02:13.158Z,-1.22
2023-02-22T19:04:39.963Z,-1.23
2023-02-22T19:07:07.039Z,-1.25
2023-02-22T19:09:33.655Z,-1.24
2023-02-22T19:12:00.231Z,-1.25
2023-02-22T19:14:26.756Z,-1.25
2023-02-22T19:16:56.553Z,-1.26
2023-02-22T19:19:26.088Z,-1.27
2023-02-22T19:21:53.145Z,-1.29
2023-02-22T19:24:20.460Z,-1.29
2023-02-22T19:26:57.266Z,-1.29
2023-02-22T19:29:24.029Z,-1.28
2023-02-22T19:31:51.745Z,-1.31
2023-02-22T19:34:21.804Z,-1.32
2023-02-22T19:36:49.067Z,-1.34
2023-02-22T19:39:17.371Z,-1.33
2023-02-22T19:41:44.216Z,-1.34
2023-02-22T19:44:12.246Z,-1.35
2023-02-22T19:46:39.800Z,-1.38
2023-02-22T19:49:07.594Z,-1.37
2023-02-22T19:51:34.503Z,-1.37
2023-02-22T19:54:06.446Z,-1.39
2023-02-22T19:56:35.502Z,-1.38
2023-02-22T19:59:13.551Z,-1.39
2023-02-22T20:01:44.644Z,-1.40
2023-02-22T20:04:17.751Z,-1.37
2023-02-22T20:06:46.259Z,-1.37
2023-02-22T20:09:16.848Z,-1.35
2023-02-22T20:11:44.408Z,-1.35
2023-02-22T20:14:17.532Z,-1.36
2023-02-22T20:16:44.340Z,-1.39
2023-02-22T20:19:11.690Z,-1.39
2023-02-22T20:21:38.408Z,-1.37
2023-02-22T20:24:07.583Z,-1.36
2023-02-22T20:26:36.990Z,-1.37
2023-02-22T20:29:05.591Z,-1.36
2023-02-22T20:31:33.411Z,-1.32
2023-02-22T20:34:01.140Z,-1.31
2023-02-22T20:36:29.792Z,-1.34
2023-02-22T20:39:00.342Z,-1.33
2023-02-22T20:41:32.618Z,-1.32
2023-02-22T20:44:01.366Z,-1.34
2023-02-22T20:46:31.461Z,-1.35
2023-02-22T20:49:00.406Z,-1.35
2023-02-22T20:51:28.141Z,-1.39
2023-02-22T20:53:56.502Z,-1.40
2023-02-22T20:56:24.374Z,-1.40
2023-02-22T20:58:50.970Z,-1.41
2023-02-22T21:01:20.273Z,-1.41
2023-02-22T21:03:47.316Z,-1.42
2023-02-22T21:06:18.121Z,-1.43
2023-02-22T21:08:49.312Z,-1.46
2023-02-22T21:11:18.115Z,-1.46
2023-02-22T21:13:44.985Z,-1.43
2023-02-22T21:16:19.204Z,-1.44
2023-02-22T21:18:45.738Z,-1.41
2023-02-22T21:21:13.215Z,-1.40
2023-02-22T21:23:40.840Z,-1.40
2023-02-22T21:26:13.552Z,-1.38
2023-02-22T21:28:50.838Z,-1.41
2023-02-22T21:31:23.404Z,-1.40
2023-02-22T21:33:53.078Z,-1.48
2023-02-22T21:36:21.118Z,-1.48
2023-02-22T21:38:53.274Z,-1.48
2023-02-22T21:41:20.983Z,-1.52
2023-02-22T21:43:52.020Z,-1.61
2023-02-22T21:46:19.382Z,-1.67
2023-02-22T21:48:48.924Z,-1.78
2023-02-22T21:51:25.409Z,-1.82
2023-02-22T21:53:54.358Z,-1.85
2023-02-22T21:56:24.364Z,-1.88
2023-02-22T21:58:59.291Z,-1.88
2023-02-22T22:01:31.894Z,-1.89
2023-02-22T22:04:00.326Z,-1.87
2023-02-22T22:06:29.217Z,-1.88
2023-02-22T22:08:57.077Z,-1.98
2023-02-22T22:11:25.160Z,-2.02
2023-02-22T22:13:53.613Z,-2.05
2023-02-22T22:16:22.246Z,-2.17
2023-02-22T22:18:48.954Z,-2.17
2023-02-22T22:21:23.468Z,-2.19
2023-02-22T22:23:54.260Z,-2.17
2023-02-22T22:26:21.707Z,-2.20
2023-02-22T22:28:51.893Z,-2.18
2023-02-22T22:31:21.014Z,-2.25
2023-02-22T22:33:48.298Z,-2.23
2023-02-22T22:36:17.218Z,-2.24
2023-02-22T22:38:46.993Z,-2.26
2023-02-22T22:41:15.108Z,-2.28
2023-02-22T22:43:43.688Z,-2.30
2023-02-22T22:46:10.410Z,-2.33
2023-02-22T22:48:39.001Z,-2.33
2023-02-22T22:51:12.258Z,-2.32
2023-02-22T22:53:42.017Z,-2.34
2023-02-22T22:56:14.198Z,-2.34
2023-02-22T22:58:43.900Z,-2.34
2023-02-22T23:01:18.113Z,-2.38
2023-02-22T23:03:59.796Z,-2.36
2023-02-22T23:06:40.742Z,-2.38
2023-02-22T23:09:13.802Z,-2.39
2023-02-22T23:11:45.626Z,-2.35
2023-02-22T23:14:14.940Z,-2.39
2023-02-22T23:16:42.655Z,-2.45
2023-02-22T23:19:09.419Z,-2.44
2023-02-22T23:21:36.584Z,-2.45
2023-02-22T23:24:07.264Z,-2.48
2023-02-22T23:26:34.359Z,-2.47
2023-02-22T23:29:02.412Z,-2.50
2023-02-22T23:31:29.682Z,-2.53
2023-02-22T23:33:58.658Z,-2.58
2023-02-22T23:36:26.454Z,-2.62
2023-02-22T23:38:54.188Z,-2.69
2023-02-22T23:41:21.016Z,-2.72
2023-02-22T23:43:47.661Z,-2.76
2023-02-22T23:46:18.658Z,-2.80
2023-02-22T23:48:54.507Z,-2.89
2023-02-22T23:51:25.913Z,-2.96
2023-02-22T23:53:55.856Z,-3.04
2023-02-22T23:56:24.995Z,-3.07
2023-02-22T23:58:51.895Z,-3.15
